sensor_id;sensor_type;location;lat;lon;timestamp;temperature;humidity
50606;DHT22;36557;53.572;10.170;2022-10-17T00:00:37;11.50;99.90
50606;DHT22;36557;53.572;10.170;2022-10-17T00:03:03;11.50;99.90
50606;DHT22;36557;53.572;10.170;2022-10-17T00:05:28;11.50;99.90
50606;DHT22;36557;53.572;10.170;2022-10-17T00:07:54;11.50;99.90
50606;DHT22;36557;53.572;10.170;2022-10-17T00:10:20;11.60;99.90
50606;DHT22;36557;53.572;10.170;2022-10-17T00:12:46;11.60;99.90
50606;DHT22;36557;53.572;10.170;2022-10-17T00:15:18;11.60;99.90
50606;DHT22;36557;53.572;10.170;2022-10-17T00:17:44;11.60;99.90
50606;DHT22;36557;53.572;10.170;2022-10-17T00:20:10;11.60;99.90
50606;DHT22;36557;53.572;10.170;2022-10-17T00:22:36;11.70;99.90
50606;DHT22;36557;53.572;10.170;2022-10-17T00:25:02;11.70;99.90
50606;DHT22;36557;53.572;10.170;2022-10-17T00:27:28;11.70;99.90
50606;DHT22;36557;53.572;10.170;2022-10-17T00:29:54;11.70;99.90
50606;DHT22;36557;53.572;10.170;2022-10-17T00:32:20;11.70;99.90
50606;DHT22;36557;53.572;10.170;2022-10-17T00:34:46;11.70;99.90
50606;DHT22;36557;53.572;10.170;2022-10-17T00:37:11;11.70;99.90
50606;DHT22;36557;53.572;10.170;2022-10-17T00:39:37;11.70;99.90
50606;DHT22;36557;53.572;10.170;2022-10-17T00:42:03;11.70;99.90
50606;DHT22;36557;53.572;10.170;2022-10-17T00:47:03;11.70;99.90
50606;DHT22;36557;53.572;10.170;2022-10-17T00:49:33;11.70;99.90
50606;DHT22;36557;53.572;10.170;2022-10-17T00:52:02;11.80;99.90
50606;DHT22;36557;53.572;10.170;2022-10-17T00:54:39;11.80;99.90
50606;DHT22;36557;53.572;10.170;2022-10-17T00:57:05;11.80;99.90
50606;DHT22;36557;53.572;10.170;2022-10-17T00:59:32;11.80;99.90
50606;DHT22;36557;53.572;10.170;2022-10-17T01:02:09;11.80;99.90
50606;DHT22;36557;53.572;10.170;2022-10-17T01:04:36;11.80;99.90
50606;DHT22;36557;53.572;10.170;2022-10-17T01:07:03;11.80;99.90
50606;DHT22;36557;53.572;10.170;2022-10-17T01:09:29;11.80;99.90
50606;DHT22;36557;53.572;10.170;2022-10-17T01:11:55;11.80;99.90
50606;DHT22;36557;53.572;10.170;2022-10-17T01:17:14;11.80;99.90
50606;DHT22;36557;53.572;10.170;2022-10-17T01:22:46;11.80;99.90
50606;DHT22;36557;53.572;10.170;2022-10-17T01:28:19;11.80;99.90
50606;DHT22;36557;53.572;10.170;2022-10-17T01:36:10;11.80;99.90
50606;DHT22;36557;53.572;10.170;2022-10-17T01:39:01;11.80;99.90
50606;DHT22;36557;53.572;10.170;2022-10-17T01:41:49;11.90;99.90
50606;DHT22;36557;53.572;10.170;2022-10-17T01:44:32;11.90;99.90
50606;DHT22;36557;53.572;10.170;2022-10-17T01:47:11;11.90;99.90
50606;DHT22;36557;53.572;10.170;2022-10-17T01:49:40;12.00;99.90
50606;DHT22;36557;53.572;10.170;2022-10-17T01:52:11;12.00;99.90
50606;DHT22;36557;53.572;10.170;2022-10-17T01:57:13;12.10;99.90
50606;DHT22;36557;53.572;10.170;2022-10-17T01:59:43;12.00;99.90
50606;DHT22;36557;53.572;10.170;2022-10-17T02:02:12;12.10;99.90
50606;DHT22;36557;53.572;10.170;2022-10-17T02:04:40;12.10;99.90
50606;DHT22;36557;53.572;10.170;2022-10-17T02:07:11;12.10;99.90
50606;DHT22;36557;53.572;10.170;2022-10-17T02:09:37;12.10;99.90
50606;DHT22;36557;53.572;10.170;2022-10-17T02:20:28;12.10;99.90
50606;DHT22;36557;53.572;10.170;2022-10-17T02:23:00;12.10;99.90
50606;DHT22;36557;53.572;10.170;2022-10-17T02:28:12;12.10;99.90
50606;DHT22;36557;53.572;10.170;2022-10-17T02:30:51;12.10;99.90
50606;DHT22;36557;53.572;10.170;2022-10-17T02:35:51;12.10;99.90
50606;DHT22;36557;53.572;10.170;2022-10-17T02:38:18;12.10;99.90
50606;DHT22;36557;53.572;10.170;2022-10-17T02:40:46;12.10;99.90
50606;DHT22;36557;53.572;10.170;2022-10-17T02:43:13;12.10;99.90
50606;DHT22;36557;53.572;10.170;2022-10-17T02:45:39;12.10;99.90
50606;DHT22;36557;53.572;10.170;2022-10-17T02:48:13;12.10;99.90
50606;DHT22;36557;53.572;10.170;2022-10-17T02:54:00;12.10;99.90
50606;DHT22;36557;53.572;10.170;2022-10-17T02:56:32;12.10;99.90
50606;DHT22;36557;53.572;10.170;2022-10-17T02:59:00;12.20;99.90
50606;DHT22;36557;53.572;10.170;2022-10-17T03:01:28;12.20;99.90
50606;DHT22;36557;53.572;10.170;2022-10-17T03:04:09;12.20;99.90
50606;DHT22;36557;53.572;10.170;2022-10-17T03:06:35;12.30;99.90
50606;DHT22;36557;53.572;10.170;2022-10-17T03:09:02;12.30;99.90
50606;DHT22;36557;53.572;10.170;2022-10-17T03:11:28;12.50;99.90
50606;DHT22;36557;53.572;10.170;2022-10-17T03:13:54;12.50;99.90
50606;DHT22;36557;53.572;10.170;2022-10-17T03:16:19;12.50;99.90
50606;DHT22;36557;53.572;10.170;2022-10-17T03:18:45;12.60;99.90
50606;DHT22;36557;53.572;10.170;2022-10-17T03:21:11;12.60;99.90
50606;DHT22;36557;53.572;10.170;2022-10-17T03:23:36;12.70;99.90
50606;DHT22;36557;53.572;10.170;2022-10-17T03:26:06;12.70;99.90
50606;DHT22;36557;53.572;10.170;2022-10-17T03:28:32;12.60;99.90
50606;DHT22;36557;53.572;10.170;2022-10-17T03:30:57;12.70;99.90
50606;DHT22;36557;53.572;10.170;2022-10-17T03:33:23;12.70;99.90
50606;DHT22;36557;53.572;10.170;2022-10-17T03:35:49;12.70;99.90
50606;DHT22;36557;53.572;10.170;2022-10-17T03:38:15;12.70;99.90
50606;DHT22;36557;53.572;10.170;2022-10-17T03:40:41;12.70;99.90
50606;DHT22;36557;53.572;10.170;2022-10-17T03:43:06;12.80;99.90
50606;DHT22;36557;53.572;10.170;2022-10-17T03:45:32;12.80;99.90
50606;DHT22;36557;53.572;10.170;2022-10-17T03:47:58;12.80;99.90
50606;DHT22;36557;53.572;10.170;2022-10-17T03:50:24;12.80;99.90
50606;DHT22;36557;53.572;10.170;2022-10-17T03:52:50;12.70;99.90
50606;DHT22;36557;53.572;10.170;2022-10-17T03:55:16;12.60;99.90
50606;DHT22;36557;53.572;10.170;2022-10-17T03:57:42;12.60;99.90
50606;DHT22;36557;53.572;10.170;2022-10-17T04:00:08;12.50;99.90
50606;DHT22;36557;53.572;10.170;2022-10-17T04:02:34;12.50;99.90
50606;DHT22;36557;53.572;10.170;2022-10-17T04:05:00;12.40;99.90
50606;DHT22;36557;53.572;10.170;2022-10-17T04:07:26;12.40;99.90
50606;DHT22;36557;53.572;10.170;2022-10-17T04:09:52;12.30;99.90
50606;DHT22;36557;53.572;10.170;2022-10-17T04:12:18;12.30;99.90
50606;DHT22;36557;53.572;10.170;2022-10-17T04:14:43;12.30;99.90
50606;DHT22;36557;53.572;10.170;2022-10-17T04:17:09;12.30;99.90
50606;DHT22;36557;53.572;10.170;2022-10-17T04:19:35;12.30;99.90
50606;DHT22;36557;53.572;10.170;2022-10-17T04:22:01;12.20;99.90
50606;DHT22;36557;53.572;10.170;2022-10-17T04:24:28;12.20;99.90
50606;DHT22;36557;53.572;10.170;2022-10-17T04:26:54;12.20;99.90
50606;DHT22;36557;53.572;10.170;2022-10-17T04:29:20;12.20;99.90
50606;DHT22;36557;53.572;10.170;2022-10-17T04:31:46;12.10;99.90
50606;DHT22;36557;53.572;10.170;2022-10-17T04:34:12;12.10;99.90
50606;DHT22;36557;53.572;10.170;2022-10-17T04:36:39;12.10;99.90
50606;DHT22;36557;53.572;10.170;2022-10-17T04:39:04;12.00;99.90
50606;DHT22;36557;53.572;10.170;2022-10-17T04:41:30;12.00;99.90
50606;DHT22;36557;53.572;10.170;2022-10-17T04:43:56;12.00;99.90
50606;DHT22;36557;53.572;10.170;2022-10-17T04:46:22;11.90;99.90
50606;DHT22;36557;53.572;10.170;2022-10-17T04:48:48;11.90;99.90
50606;DHT22;36557;53.572;10.170;2022-10-17T04:51:16;11.90;99.90
50606;DHT22;36557;53.572;10.170;2022-10-17T04:53:43;11.90;99.90
50606;DHT22;36557;53.572;10.170;2022-10-17T04:56:14;11.80;99.90
50606;DHT22;36557;53.572;10.170;2022-10-17T04:58:41;11.80;99.90
50606;DHT22;36557;53.572;10.170;2022-10-17T05:01:09;11.80;99.90
50606;DHT22;36557;53.572;10.170;2022-10-17T05:03:35;11.70;99.90
50606;DHT22;36557;53.572;10.170;2022-10-17T05:06:06;11.70;99.90
50606;DHT22;36557;53.572;10.170;2022-10-17T05:08:32;11.70;99.90
50606;DHT22;36557;53.572;10.170;2022-10-17T05:10:57;11.60;99.90
50606;DHT22;36557;53.572;10.170;2022-10-17T05:13:23;11.60;99.90
50606;DHT22;36557;53.572;10.170;2022-10-17T05:15:49;11.60;99.90
50606;DHT22;36557;53.572;10.170;2022-10-17T05:18:14;11.60;99.90
50606;DHT22;36557;53.572;10.170;2022-10-17T05:20:40;11.50;99.90
50606;DHT22;36557;53.572;10.170;2022-10-17T05:23:06;11.60;99.90
50606;DHT22;36557;53.572;10.170;2022-10-17T05:25:32;11.50;99.90
50606;DHT22;36557;53.572;10.170;2022-10-17T05:27:57;11.50;99.90
50606;DHT22;36557;53.572;10.170;2022-10-17T05:30:23;11.50;99.90
50606;DHT22;36557;53.572;10.170;2022-10-17T05:32:53;11.50;99.90
50606;DHT22;36557;53.572;10.170;2022-10-17T05:35:19;11.40;99.90
50606;DHT22;36557;53.572;10.170;2022-10-17T05:37:45;11.40;99.90
50606;DHT22;36557;53.572;10.170;2022-10-17T05:40:11;11.40;99.90
50606;DHT22;36557;53.572;10.170;2022-10-17T05:42:37;11.40;99.90
50606;DHT22;36557;53.572;10.170;2022-10-17T05:45:03;11.40;99.90
50606;DHT22;36557;53.572;10.170;2022-10-17T05:47:29;11.40;99.90
50606;DHT22;36557;53.572;10.170;2022-10-17T05:49:55;11.40;99.90
50606;DHT22;36557;53.572;10.170;2022-10-17T05:52:20;11.40;99.90
50606;DHT22;36557;53.572;10.170;2022-10-17T05:54:46;11.30;99.90
50606;DHT22;36557;53.572;10.170;2022-10-17T05:57:12;11.30;99.90
50606;DHT22;36557;53.572;10.170;2022-10-17T05:59:37;11.30;99.90
50606;DHT22;36557;53.572;10.170;2022-10-17T06:02:03;11.30;99.90
50606;DHT22;36557;53.572;10.170;2022-10-17T06:04:29;11.40;99.90
50606;DHT22;36557;53.572;10.170;2022-10-17T06:06:55;11.40;99.90
50606;DHT22;36557;53.572;10.170;2022-10-17T06:09:22;11.30;99.90
50606;DHT22;36557;53.572;10.170;2022-10-17T06:11:48;11.30;99.90
50606;DHT22;36557;53.572;10.170;2022-10-17T06:14:14;11.30;99.90
50606;DHT22;36557;53.572;10.170;2022-10-17T06:16:39;11.30;99.90
50606;DHT22;36557;53.572;10.170;2022-10-17T06:19:05;11.40;99.90
50606;DHT22;36557;53.572;10.170;2022-10-17T06:21:31;11.40;99.90
50606;DHT22;36557;53.572;10.170;2022-10-17T06:24:00;11.40;99.90
50606;DHT22;36557;53.572;10.170;2022-10-17T06:26:26;11.40;99.90
50606;DHT22;36557;53.572;10.170;2022-10-17T06:28:53;11.50;99.90
50606;DHT22;36557;53.572;10.170;2022-10-17T06:31:19;11.50;99.90
50606;DHT22;36557;53.572;10.170;2022-10-17T06:33:45;11.60;99.90
50606;DHT22;36557;53.572;10.170;2022-10-17T06:36:12;11.70;99.90
50606;DHT22;36557;53.572;10.170;2022-10-17T06:38:39;11.70;99.90
50606;DHT22;36557;53.572;10.170;2022-10-17T06:41:11;11.70;99.90
50606;DHT22;36557;53.572;10.170;2022-10-17T06:43:39;11.80;99.90
50606;DHT22;36557;53.572;10.170;2022-10-17T06:46:08;11.80;99.90
50606;DHT22;36557;53.572;10.170;2022-10-17T06:48:34;11.80;99.90
50606;DHT22;36557;53.572;10.170;2022-10-17T06:51:00;11.90;99.90
50606;DHT22;36557;53.572;10.170;2022-10-17T06:53:35;11.90;99.90
50606;DHT22;36557;53.572;10.170;2022-10-17T06:56:01;12.00;99.90
50606;DHT22;36557;53.572;10.170;2022-10-17T06:58:33;12.10;99.90
50606;DHT22;36557;53.572;10.170;2022-10-17T07:01:05;12.20;99.90
50606;DHT22;36557;53.572;10.170;2022-10-17T07:03:31;12.30;99.90
50606;DHT22;36557;53.572;10.170;2022-10-17T07:05:57;12.40;99.90
50606;DHT22;36557;53.572;10.170;2022-10-17T07:08:23;12.50;99.90
50606;DHT22;36557;53.572;10.170;2022-10-17T07:10:49;12.60;99.90
50606;DHT22;36557;53.572;10.170;2022-10-17T07:13:16;12.80;99.90
50606;DHT22;36557;53.572;10.170;2022-10-17T07:15:42;12.90;99.90
50606;DHT22;36557;53.572;10.170;2022-10-17T07:18:08;13.00;99.90
50606;DHT22;36557;53.572;10.170;2022-10-17T07:20:34;13.20;99.90
50606;DHT22;36557;53.572;10.170;2022-10-17T07:23:00;13.30;99.90
50606;DHT22;36557;53.572;10.170;2022-10-17T07:25:26;13.50;99.90
50606;DHT22;36557;53.572;10.170;2022-10-17T07:27:52;13.60;99.90
50606;DHT22;36557;53.572;10.170;2022-10-17T07:30:18;13.70;99.90
50606;DHT22;36557;53.572;10.170;2022-10-17T07:32:44;13.90;99.90
50606;DHT22;36557;53.572;10.170;2022-10-17T07:35:11;14.10;99.90
50606;DHT22;36557;53.572;10.170;2022-10-17T07:37:37;14.20;99.90
50606;DHT22;36557;53.572;10.170;2022-10-17T07:40:04;14.40;99.90
50606;DHT22;36557;53.572;10.170;2022-10-17T07:42:31;14.50;99.90
50606;DHT22;36557;53.572;10.170;2022-10-17T07:44:57;14.50;99.90
50606;DHT22;36557;53.572;10.170;2022-10-17T07:47:22;14.60;99.90
50606;DHT22;36557;53.572;10.170;2022-10-17T07:49:48;14.70;99.90
50606;DHT22;36557;53.572;10.170;2022-10-17T07:52:14;14.80;99.90
50606;DHT22;36557;53.572;10.170;2022-10-17T07:54:40;14.90;99.90
50606;DHT22;36557;53.572;10.170;2022-10-17T07:57:07;15.00;99.90
50606;DHT22;36557;53.572;10.170;2022-10-17T07:59:33;15.00;99.90
50606;DHT22;36557;53.572;10.170;2022-10-17T08:01:59;15.10;99.90
50606;DHT22;36557;53.572;10.170;2022-10-17T08:04:26;15.20;99.90
50606;DHT22;36557;53.572;10.170;2022-10-17T08:06:52;15.40;99.90
50606;DHT22;36557;53.572;10.170;2022-10-17T08:09:18;15.60;99.90
50606;DHT22;36557;53.572;10.170;2022-10-17T08:11:44;15.80;99.90
50606;DHT22;36557;53.572;10.170;2022-10-17T08:14:11;16.00;99.90
50606;DHT22;36557;53.572;10.170;2022-10-17T08:16:37;16.10;99.90
50606;DHT22;36557;53.572;10.170;2022-10-17T08:19:03;16.40;99.90
50606;DHT22;36557;53.572;10.170;2022-10-17T08:21:29;16.50;99.90
50606;DHT22;36557;53.572;10.170;2022-10-17T08:23:55;16.50;99.90
50606;DHT22;36557;53.572;10.170;2022-10-17T08:26:21;16.40;99.90
50606;DHT22;36557;53.572;10.170;2022-10-17T08:28:47;16.40;99.90
50606;DHT22;36557;53.572;10.170;2022-10-17T08:31:19;16.30;99.90
50606;DHT22;36557;53.572;10.170;2022-10-17T08:33:45;16.30;99.90
50606;DHT22;36557;53.572;10.170;2022-10-17T08:36:16;16.30;99.90
50606;DHT22;36557;53.572;10.170;2022-10-17T08:38:42;16.30;99.90
50606;DHT22;36557;53.572;10.170;2022-10-17T08:46:51;16.40;99.90
50606;DHT22;36557;53.572;10.170;2022-10-17T08:51:55;16.40;99.90
50606;DHT22;36557;53.572;10.170;2022-10-17T08:54:36;16.40;99.90
50606;DHT22;36557;53.572;10.170;2022-10-17T08:57:03;16.50;99.90
50606;DHT22;36557;53.572;10.170;2022-10-17T08:59:29;16.60;99.90
50606;DHT22;36557;53.572;10.170;2022-10-17T09:02:38;16.60;99.90
50606;DHT22;36557;53.572;10.170;2022-10-17T09:07:54;16.70;99.90
50606;DHT22;36557;53.572;10.170;2022-10-17T09:13:38;16.80;99.90
50606;DHT22;36557;53.572;10.170;2022-10-17T09:19:05;17.40;99.90
50606;DHT22;36557;53.572;10.170;2022-10-17T09:24:42;17.80;99.90
50606;DHT22;36557;53.572;10.170;2022-10-17T09:27:24;17.90;99.90
50606;DHT22;36557;53.572;10.170;2022-10-17T09:30:17;18.00;99.90
50606;DHT22;36557;53.572;10.170;2022-10-17T09:32:45;18.20;99.90
50606;DHT22;36557;53.572;10.170;2022-10-17T09:35:15;18.30;99.90
50606;DHT22;36557;53.572;10.170;2022-10-17T09:37:42;18.40;99.90
50606;DHT22;36557;53.572;10.170;2022-10-17T09:40:15;18.30;99.90
50606;DHT22;36557;53.572;10.170;2022-10-17T09:42:44;18.20;99.90
50606;DHT22;36557;53.572;10.170;2022-10-17T09:47:45;18.20;99.90
50606;DHT22;36557;53.572;10.170;2022-10-17T09:50:20;18.20;99.90
50606;DHT22;36557;53.572;10.170;2022-10-17T09:52:47;18.20;99.90
50606;DHT22;36557;53.572;10.170;2022-10-17T09:55:37;18.20;99.90
50606;DHT22;36557;53.572;10.170;2022-10-17T09:58:05;18.30;99.90
50606;DHT22;36557;53.572;10.170;2022-10-17T10:00:40;18.40;99.90
50606;DHT22;36557;53.572;10.170;2022-10-17T10:03:24;18.50;99.90
50606;DHT22;36557;53.572;10.170;2022-10-17T10:06:15;18.70;99.90
50606;DHT22;36557;53.572;10.170;2022-10-17T10:08:54;18.80;99.90
50606;DHT22;36557;53.572;10.170;2022-10-17T10:11:24;18.80;99.90
50606;DHT22;36557;53.572;10.170;2022-10-17T10:13:51;18.80;99.90
50606;DHT22;36557;53.572;10.170;2022-10-17T10:16:25;19.00;99.90
50606;DHT22;36557;53.572;10.170;2022-10-17T10:18:54;19.20;99.90
50606;DHT22;36557;53.572;10.170;2022-10-17T10:21:24;19.30;99.90
50606;DHT22;36557;53.572;10.170;2022-10-17T10:24:04;19.30;99.90
50606;DHT22;36557;53.572;10.170;2022-10-17T10:26:37;19.40;99.90
50606;DHT22;36557;53.572;10.170;2022-10-17T10:31:51;19.50;99.90
50606;DHT22;36557;53.572;10.170;2022-10-17T10:34:25;19.50;99.90
50606;DHT22;36557;53.572;10.170;2022-10-17T10:39:43;19.60;99.90
50606;DHT22;36557;53.572;10.170;2022-10-17T10:42:24;19.70;99.90
50606;DHT22;36557;53.572;10.170;2022-10-17T10:44:51;19.90;99.90
50606;DHT22;36557;53.572;10.170;2022-10-17T10:47:27;20.00;99.90
50606;DHT22;36557;53.572;10.170;2022-10-17T10:52:49;20.00;99.90
50606;DHT22;36557;53.572;10.170;2022-10-17T10:55:49;20.00;99.90
50606;DHT22;36557;53.572;10.170;2022-10-17T10:59:19;19.90;99.90
50606;DHT22;36557;53.572;10.170;2022-10-17T11:01:49;19.90;99.90
50606;DHT22;36557;53.572;10.170;2022-10-17T11:07:07;19.80;99.90
50606;DHT22;36557;53.572;10.170;2022-10-17T11:14:55;19.60;99.90
50606;DHT22;36557;53.572;10.170;2022-10-17T11:17:33;19.60;99.90
50606;DHT22;36557;53.572;10.170;2022-10-17T11:22:52;19.60;99.90
50606;DHT22;36557;53.572;10.170;2022-10-17T11:25:37;19.60;99.90
50606;DHT22;36557;53.572;10.170;2022-10-17T11:28:12;19.70;99.90
50606;DHT22;36557;53.572;10.170;2022-10-17T11:31:04;19.70;99.90
50606;DHT22;36557;53.572;10.170;2022-10-17T11:36:23;19.90;99.90
50606;DHT22;36557;53.572;10.170;2022-10-17T11:41:36;20.20;99.90
50606;DHT22;36557;53.572;10.170;2022-10-17T11:44:50;20.30;99.90
50606;DHT22;36557;53.572;10.170;2022-10-17T11:47:03;20.40;99.90
50606;DHT22;36557;53.572;10.170;2022-10-17T11:49:37;20.40;99.90
50606;DHT22;36557;53.572;10.170;2022-10-17T11:52:40;20.40;99.90
50606;DHT22;36557;53.572;10.170;2022-10-17T11:55:27;20.50;99.90
50606;DHT22;36557;53.572;10.170;2022-10-17T11:57:55;20.50;99.90
50606;DHT22;36557;53.572;10.170;2022-10-17T12:05:55;20.40;99.90
50606;DHT22;36557;53.572;10.170;2022-10-17T12:08:28;20.30;99.90
50606;DHT22;36557;53.572;10.170;2022-10-17T12:18:43;19.90;99.90
50606;DHT22;36557;53.572;10.170;2022-10-17T12:21:09;19.90;99.90
50606;DHT22;36557;53.572;10.170;2022-10-17T12:23:35;19.90;99.90
50606;DHT22;36557;53.572;10.170;2022-10-17T12:26:07;19.90;99.90
50606;DHT22;36557;53.572;10.170;2022-10-17T12:33:50;19.60;99.90
50606;DHT22;36557;53.572;10.170;2022-10-17T12:38:43;19.60;99.90
50606;DHT22;36557;53.572;10.170;2022-10-17T12:41:09;19.50;99.90
50606;DHT22;36557;53.572;10.170;2022-10-17T12:46:07;19.50;99.90
50606;DHT22;36557;53.572;10.170;2022-10-17T12:51:19;19.60;99.90
50606;DHT22;36557;53.572;10.170;2022-10-17T12:56:34;19.70;99.90
50606;DHT22;36557;53.572;10.170;2022-10-17T12:59:10;19.60;99.90
50606;DHT22;36557;53.572;10.170;2022-10-17T13:01:38;19.60;99.90
50606;DHT22;36557;53.572;10.170;2022-10-17T13:04:04;19.60;99.90
50606;DHT22;36557;53.572;10.170;2022-10-17T13:06:35;19.50;99.90
50606;DHT22;36557;53.572;10.170;2022-10-17T13:09:07;19.40;99.90
50606;DHT22;36557;53.572;10.170;2022-10-17T13:11:38;19.40;99.90
50606;DHT22;36557;53.572;10.170;2022-10-17T13:14:11;19.30;99.90
50606;DHT22;36557;53.572;10.170;2022-10-17T13:16:40;19.30;99.90
50606;DHT22;36557;53.572;10.170;2022-10-17T13:19:16;19.20;99.90
50606;DHT22;36557;53.572;10.170;2022-10-17T13:21:59;19.10;99.90
50606;DHT22;36557;53.572;10.170;2022-10-17T13:26:54;19.00;99.90
50606;DHT22;36557;53.572;10.170;2022-10-17T13:29:20;18.60;99.90
50606;DHT22;36557;53.572;10.170;2022-10-17T13:31:52;18.40;99.90
50606;DHT22;36557;53.572;10.170;2022-10-17T13:34:21;18.20;99.90
50606;DHT22;36557;53.572;10.170;2022-10-17T13:36:51;18.10;99.90
50606;DHT22;36557;53.572;10.170;2022-10-17T13:39:20;18.00;99.90
50606;DHT22;36557;53.572;10.170;2022-10-17T13:41:46;18.00;99.90
50606;DHT22;36557;53.572;10.170;2022-10-17T13:44:20;18.00;99.90
50606;DHT22;36557;53.572;10.170;2022-10-17T13:46:47;17.90;99.90
50606;DHT22;36557;53.572;10.170;2022-10-17T13:51:48;17.90;99.90
50606;DHT22;36557;53.572;10.170;2022-10-17T13:56:56;17.80;99.90
50606;DHT22;36557;53.572;10.170;2022-10-17T13:59:35;17.80;99.90
50606;DHT22;36557;53.572;10.170;2022-10-17T14:02:02;17.70;99.90
50606;DHT22;36557;53.572;10.170;2022-10-17T14:04:28;17.60;99.90
50606;DHT22;36557;53.572;10.170;2022-10-17T14:06:54;17.60;99.90
50606;DHT22;36557;53.572;10.170;2022-10-17T14:09:28;17.50;99.90
50606;DHT22;36557;53.572;10.170;2022-10-17T14:12:07;17.50;99.90
50606;DHT22;36557;53.572;10.170;2022-10-17T14:14:35;17.50;99.90
50606;DHT22;36557;53.572;10.170;2022-10-17T14:17:02;17.40;99.90
50606;DHT22;36557;53.572;10.170;2022-10-17T14:19:30;17.40;99.90
50606;DHT22;36557;53.572;10.170;2022-10-17T14:24:42;17.40;99.90
50606;DHT22;36557;53.572;10.170;2022-10-17T14:29:57;17.40;99.90
50606;DHT22;36557;53.572;10.170;2022-10-17T14:32:32;17.40;99.90
50606;DHT22;36557;53.572;10.170;2022-10-17T14:35:00;17.40;99.90
50606;DHT22;36557;53.572;10.170;2022-10-17T14:37:46;17.40;99.90
50606;DHT22;36557;53.572;10.170;2022-10-17T14:40:20;17.30;99.90
50606;DHT22;36557;53.572;10.170;2022-10-17T14:42:57;17.30;99.90
50606;DHT22;36557;53.572;10.170;2022-10-17T14:45:34;17.40;99.90
50606;DHT22;36557;53.572;10.170;2022-10-17T14:50:32;17.30;99.90
50606;DHT22;36557;53.572;10.170;2022-10-17T14:55:27;17.20;99.90
50606;DHT22;36557;53.572;10.170;2022-10-17T14:57:54;17.20;99.90
50606;DHT22;36557;53.572;10.170;2022-10-17T15:00:21;17.20;99.90
50606;DHT22;36557;53.572;10.170;2022-10-17T15:02:48;17.20;99.90
50606;DHT22;36557;53.572;10.170;2022-10-17T15:05:15;17.20;99.90
50606;DHT22;36557;53.572;10.170;2022-10-17T15:07:42;17.20;99.90
50606;DHT22;36557;53.572;10.170;2022-10-17T15:10:33;17.20;99.90
50606;DHT22;36557;53.572;10.170;2022-10-17T15:12:59;17.20;99.90
50606;DHT22;36557;53.572;10.170;2022-10-17T15:15:29;17.20;99.90
50606;DHT22;36557;53.572;10.170;2022-10-17T15:17:56;17.20;99.90
50606;DHT22;36557;53.572;10.170;2022-10-17T15:20:24;17.20;99.90
50606;DHT22;36557;53.572;10.170;2022-10-17T15:22:53;17.20;99.90
50606;DHT22;36557;53.572;10.170;2022-10-17T15:25:19;17.20;99.90
50606;DHT22;36557;53.572;10.170;2022-10-17T15:27:45;17.20;99.90
50606;DHT22;36557;53.572;10.170;2022-10-17T15:30:31;17.20;99.90
50606;DHT22;36557;53.572;10.170;2022-10-17T15:32:59;17.10;99.90
50606;DHT22;36557;53.572;10.170;2022-10-17T15:35:25;17.20;99.90
50606;DHT22;36557;53.572;10.170;2022-10-17T15:37:52;17.10;99.90
50606;DHT22;36557;53.572;10.170;2022-10-17T15:40:24;17.10;99.90
50606;DHT22;36557;53.572;10.170;2022-10-17T15:42:50;17.10;99.90
50606;DHT22;36557;53.572;10.170;2022-10-17T15:45:18;17.10;99.90
50606;DHT22;36557;53.572;10.170;2022-10-17T15:47:54;17.10;99.90
50606;DHT22;36557;53.572;10.170;2022-10-17T15:50:20;17.10;99.90
50606;DHT22;36557;53.572;10.170;2022-10-17T15:52:47;17.10;99.90
50606;DHT22;36557;53.572;10.170;2022-10-17T15:55:16;17.00;99.90
50606;DHT22;36557;53.572;10.170;2022-10-17T15:57:44;17.00;99.90
50606;DHT22;36557;53.572;10.170;2022-10-17T16:00:23;17.00;99.90
50606;DHT22;36557;53.572;10.170;2022-10-17T16:02:49;17.00;99.90
50606;DHT22;36557;53.572;10.170;2022-10-17T16:05:24;16.90;99.90
50606;DHT22;36557;53.572;10.170;2022-10-17T16:07:53;17.00;99.90
50606;DHT22;36557;53.572;10.170;2022-10-17T16:10:19;16.90;99.90
50606;DHT22;36557;53.572;10.170;2022-10-17T16:12:45;16.90;99.90
50606;DHT22;36557;53.572;10.170;2022-10-17T16:15:22;16.90;99.90
50606;DHT22;36557;53.572;10.170;2022-10-17T16:17:50;16.90;99.90
50606;DHT22;36557;53.572;10.170;2022-10-17T16:20:16;16.90;99.90
50606;DHT22;36557;53.572;10.170;2022-10-17T16:22:43;16.80;99.90
50606;DHT22;36557;53.572;10.170;2022-10-17T16:25:24;16.80;99.90
50606;DHT22;36557;53.572;10.170;2022-10-17T16:27:52;16.80;99.90
50606;DHT22;36557;53.572;10.170;2022-10-17T16:30:20;16.80;99.90
50606;DHT22;36557;53.572;10.170;2022-10-17T16:32:47;16.80;99.90
50606;DHT22;36557;53.572;10.170;2022-10-17T16:35:20;16.80;99.90
50606;DHT22;36557;53.572;10.170;2022-10-17T16:37:46;16.70;99.90
50606;DHT22;36557;53.572;10.170;2022-10-17T16:40:12;16.70;99.90
50606;DHT22;36557;53.572;10.170;2022-10-17T16:42:38;16.70;99.90
50606;DHT22;36557;53.572;10.170;2022-10-17T16:45:04;16.70;99.90
50606;DHT22;36557;53.572;10.170;2022-10-17T16:47:30;16.80;99.90
50606;DHT22;36557;53.572;10.170;2022-10-17T16:49:55;16.70;99.90
50606;DHT22;36557;53.572;10.170;2022-10-17T16:52:21;16.70;99.90
50606;DHT22;36557;53.572;10.170;2022-10-17T16:54:47;16.70;99.90
50606;DHT22;36557;53.572;10.170;2022-10-17T16:57:12;16.70;99.90
50606;DHT22;36557;53.572;10.170;2022-10-17T16:59:38;16.70;99.90
50606;DHT22;36557;53.572;10.170;2022-10-17T17:02:04;16.70;99.90
50606;DHT22;36557;53.572;10.170;2022-10-17T17:04:30;16.70;99.90
50606;DHT22;36557;53.572;10.170;2022-10-17T17:06:55;16.70;99.90
50606;DHT22;36557;53.572;10.170;2022-10-17T17:09:21;16.70;99.90
50606;DHT22;36557;53.572;10.170;2022-10-17T17:11:47;16.70;99.90
50606;DHT22;36557;53.572;10.170;2022-10-17T17:14:12;16.70;99.90
50606;DHT22;36557;53.572;10.170;2022-10-17T17:16:38;16.60;99.90
50606;DHT22;36557;53.572;10.170;2022-10-17T17:19:07;16.60;99.90
50606;DHT22;36557;53.572;10.170;2022-10-17T17:21:34;16.60;99.90
50606;DHT22;36557;53.572;10.170;2022-10-17T17:24:01;16.60;99.90
50606;DHT22;36557;53.572;10.170;2022-10-17T17:26:30;16.70;99.90
50606;DHT22;36557;53.572;10.170;2022-10-17T17:28:58;16.70;99.90
50606;DHT22;36557;53.572;10.170;2022-10-17T17:31:29;16.60;99.90
50606;DHT22;36557;53.572;10.170;2022-10-17T17:33:55;16.60;99.90
50606;DHT22;36557;53.572;10.170;2022-10-17T17:36:23;16.60;99.90
50606;DHT22;36557;53.572;10.170;2022-10-17T17:38:50;16.60;99.90